sensor_id;sensor_type;location;lat;lon;timestamp;P1;durP1;ratioP1;P2;durP2;ratioP2
48685;SDS011;34485;51.536;3.816;2023-04-03T00:01:08;5.18;;;2.78;;
48685;SDS011;34485;51.536;3.816;2023-04-03T00:03:34;3.85;;;3.55;;
48685;SDS011;34485;51.536;3.816;2023-04-03T00:06:01;3.95;;;3.65;;
48685;SDS011;34485;51.536;3.816;2023-04-03T00:08:28;6.65;;;3.95;;
48685;SDS011;34485;51.536;3.816;2023-04-03T00:10:55;2.50;;;2.40;;
48685;SDS011;34485;51.536;3.816;2023-04-03T00:13:21;6.00;;;3.72;;
48685;SDS011;34485;51.536;3.816;2023-04-03T00:15:48;3.70;;;2.95;;
48685;SDS011;34485;51.536;3.816;2023-04-03T00:18:13;6.17;;;3.30;;
48685;SDS011;34485;51.536;3.816;2023-04-03T00:20:40;3.40;;;2.90;;
48685;SDS011;34485;51.536;3.816;2023-04-03T00:23:06;3.45;;;2.83;;
48685;SDS011;34485;51.536;3.816;2023-04-03T00:25:32;4.00;;;3.63;;
48685;SDS011;34485;51.536;3.816;2023-04-03T00:27:58;2.87;;;2.63;;
48685;SDS011;34485;51.536;3.816;2023-04-03T00:30:24;5.85;;;3.05;;
48685;SDS011;34485;51.536;3.816;2023-04-03T00:32:50;3.07;;;2.53;;
48685;SDS011;34485;51.536;3.816;2023-04-03T00:35:16;4.00;;;3.15;;
48685;SDS011;34485;51.536;3.816;2023-04-03T00:37:44;4.80;;;3.47;;
48685;SDS011;34485;51.536;3.816;2023-04-03T00:40:10;4.97;;;2.97;;
48685;SDS011;34485;51.536;3.816;2023-04-03T00:42:39;4.65;;;2.90;;
48685;SDS011;34485;51.536;3.816;2023-04-03T00:47:38;5.63;;;3.28;;
48685;SDS011;34485;51.536;3.816;2023-04-03T00:50:06;4.85;;;3.30;;
48685;SDS011;34485;51.536;3.816;2023-04-03T00:52:33;8.52;;;3.47;;
48685;SDS011;34485;51.536;3.816;2023-04-03T00:55:00;3.40;;;2.73;;
48685;SDS011;34485;51.536;3.816;2023-04-03T00:57:44;5.65;;;2.83;;
48685;SDS011;34485;51.536;3.816;2023-04-03T01:00:12;4.32;;;2.35;;
48685;SDS011;34485;51.536;3.816;2023-04-03T01:02:41;2.67;;;2.47;;
48685;SDS011;34485;51.536;3.816;2023-04-03T01:05:07;3.17;;;2.90;;
48685;SDS011;34485;51.536;3.816;2023-04-03T01:07:33;3.15;;;2.58;;
48685;SDS011;34485;51.536;3.816;2023-04-03T01:10:02;4.15;;;3.15;;
48685;SDS011;34485;51.536;3.816;2023-04-03T01:12:32;2.97;;;2.67;;
48685;SDS011;34485;51.536;3.816;2023-04-03T01:15:04;4.45;;;2.78;;
48685;SDS011;34485;51.536;3.816;2023-04-03T01:17:39;3.38;;;3.10;;
48685;SDS011;34485;51.536;3.816;2023-04-03T01:25:35;5.10;;;3.72;;
48685;SDS011;34485;51.536;3.816;2023-04-03T01:28:03;3.53;;;3.22;;
48685;SDS011;34485;51.536;3.816;2023-04-03T01:30:31;3.42;;;2.72;;
48685;SDS011;34485;51.536;3.816;2023-04-03T01:33:00;2.67;;;2.47;;
48685;SDS011;34485;51.536;3.816;2023-04-03T01:35:26;3.47;;;3.17;;
48685;SDS011;34485;51.536;3.816;2023-04-03T01:37:52;3.85;;;3.65;;
48685;SDS011;34485;51.536;3.816;2023-04-03T01:40:17;3.37;;;2.90;;
48685;SDS011;34485;51.536;3.816;2023-04-03T01:42:43;4.15;;;3.00;;
48685;SDS011;34485;51.536;3.816;2023-04-03T01:45:09;6.32;;;2.40;;
48685;SDS011;34485;51.536;3.816;2023-04-03T01:47:35;6.93;;;3.47;;
48685;SDS011;34485;51.536;3.816;2023-04-03T01:50:01;4.63;;;3.37;;
48685;SDS011;34485;51.536;3.816;2023-04-03T01:52:26;3.60;;;3.10;;
48685;SDS011;34485;51.536;3.816;2023-04-03T01:54:52;4.60;;;2.47;;
48685;SDS011;34485;51.536;3.816;2023-04-03T01:57:17;8.37;;;3.70;;
48685;SDS011;34485;51.536;3.816;2023-04-03T01:59:43;4.17;;;2.97;;
48685;SDS011;34485;51.536;3.816;2023-04-03T02:02:09;5.07;;;3.17;;
48685;SDS011;34485;51.536;3.816;2023-04-03T02:04:37;6.97;;;3.35;;
48685;SDS011;34485;51.536;3.816;2023-04-03T02:07:03;3.83;;;2.90;;
48685;SDS011;34485;51.536;3.816;2023-04-03T02:09:28;5.25;;;3.85;;
48685;SDS011;34485;51.536;3.816;2023-04-03T02:11:54;4.13;;;3.13;;
48685;SDS011;34485;51.536;3.816;2023-04-03T02:14:20;6.28;;;3.45;;
48685;SDS011;34485;51.536;3.816;2023-04-03T02:16:46;5.40;;;3.30;;
48685;SDS011;34485;51.536;3.816;2023-04-03T02:19:12;6.03;;;3.47;;
48685;SDS011;34485;51.536;3.816;2023-04-03T02:21:38;4.38;;;3.47;;
48685;SDS011;34485;51.536;3.816;2023-04-03T02:24:03;7.10;;;3.20;;
48685;SDS011;34485;51.536;3.816;2023-04-03T02:26:30;3.67;;;3.20;;
48685;SDS011;34485;51.536;3.816;2023-04-03T02:28:55;4.40;;;3.73;;
48685;SDS011;34485;51.536;3.816;2023-04-03T02:31:21;5.60;;;3.92;;
48685;SDS011;34485;51.536;3.816;2023-04-03T02:33:47;4.43;;;3.92;;
48685;SDS011;34485;51.536;3.816;2023-04-03T02:36:13;4.60;;;4.05;;
48685;SDS011;34485;51.536;3.816;2023-04-03T02:38:39;4.93;;;3.85;;
48685;SDS011;34485;51.536;3.816;2023-04-03T02:41:06;4.30;;;3.95;;
48685;SDS011;34485;51.536;3.816;2023-04-03T02:43:33;4.15;;;3.83;;
48685;SDS011;34485;51.536;3.816;2023-04-03T02:45:59;4.38;;;3.33;;
48685;SDS011;34485;51.536;3.816;2023-04-03T02:48:25;4.57;;;4.17;;
48685;SDS011;34485;51.536;3.816;2023-04-03T02:50:51;7.57;;;3.90;;
48685;SDS011;34485;51.536;3.816;2023-04-03T02:53:18;4.95;;;4.10;;
48685;SDS011;34485;51.536;3.816;2023-04-03T02:55:44;7.22;;;4.00;;
48685;SDS011;34485;51.536;3.816;2023-04-03T02:58:10;8.45;;;3.65;;
48685;SDS011;34485;51.536;3.816;2023-04-03T03:00:36;4.53;;;3.30;;
48685;SDS011;34485;51.536;3.816;2023-04-03T03:03:02;4.50;;;4.00;;
48685;SDS011;34485;51.536;3.816;2023-04-03T03:05:28;4.45;;;4.07;;
48685;SDS011;34485;51.536;3.816;2023-04-03T03:07:53;5.83;;;4.23;;
48685;SDS011;34485;51.536;3.816;2023-04-03T03:10:19;4.85;;;4.30;;
48685;SDS011;34485;51.536;3.816;2023-04-03T03:12:45;3.83;;;3.40;;
48685;SDS011;34485;51.536;3.816;2023-04-03T03:15:11;4.20;;;3.70;;
48685;SDS011;34485;51.536;3.816;2023-04-03T03:17:36;4.30;;;3.90;;
48685;SDS011;34485;51.536;3.816;2023-04-03T03:20:03;4.28;;;3.35;;
48685;SDS011;34485;51.536;3.816;2023-04-03T03:22:29;5.05;;;4.10;;
48685;SDS011;34485;51.536;3.816;2023-04-03T03:24:55;5.83;;;3.90;;
48685;SDS011;34485;51.536;3.816;2023-04-03T03:27:21;4.22;;;3.78;;
48685;SDS011;34485;51.536;3.816;2023-04-03T03:29:46;10.70;;;4.60;;
48685;SDS011;34485;51.536;3.816;2023-04-03T03:32:12;4.73;;;3.87;;
48685;SDS011;34485;51.536;3.816;2023-04-03T03:34:38;4.38;;;3.70;;
48685;SDS011;34485;51.536;3.816;2023-04-03T03:37:03;5.73;;;3.97;;
48685;SDS011;34485;51.536;3.816;2023-04-03T03:39:29;6.47;;;4.00;;
48685;SDS011;34485;51.536;3.816;2023-04-03T03:41:55;4.53;;;3.93;;
48685;SDS011;34485;51.536;3.816;2023-04-03T03:44:20;5.13;;;4.57;;
48685;SDS011;34485;51.536;3.816;2023-04-03T03:46:46;7.27;;;4.10;;
48685;SDS011;34485;51.536;3.816;2023-04-03T03:49:12;8.18;;;4.45;;
48685;SDS011;34485;51.536;3.816;2023-04-03T03:51:38;11.47;;;4.97;;
48685;SDS011;34485;51.536;3.816;2023-04-03T03:54:04;8.68;;;4.25;;
48685;SDS011;34485;51.536;3.816;2023-04-03T03:56:30;4.60;;;3.80;;
48685;SDS011;34485;51.536;3.816;2023-04-03T03:58:57;5.53;;;4.90;;
48685;SDS011;34485;51.536;3.816;2023-04-03T04:01:23;8.43;;;3.57;;
48685;SDS011;34485;51.536;3.816;2023-04-03T04:03:49;8.25;;;3.83;;
48685;SDS011;34485;51.536;3.816;2023-04-03T04:06:15;10.93;;;4.60;;
48685;SDS011;34485;51.536;3.816;2023-04-03T04:08:41;4.70;;;3.50;;
48685;SDS011;34485;51.536;3.816;2023-04-03T04:11:07;5.97;;;4.43;;
48685;SDS011;34485;51.536;3.816;2023-04-03T04:13:33;4.82;;;4.22;;
48685;SDS011;34485;51.536;3.816;2023-04-03T04:15:59;4.90;;;4.40;;
48685;SDS011;34485;51.536;3.816;2023-04-03T04:18:24;5.70;;;4.37;;
48685;SDS011;34485;51.536;3.816;2023-04-03T04:20:50;9.05;;;3.75;;
48685;SDS011;34485;51.536;3.816;2023-04-03T04:23:17;6.15;;;4.90;;
48685;SDS011;34485;51.536;3.816;2023-04-03T04:25:46;9.03;;;3.83;;
48685;SDS011;34485;51.536;3.816;2023-04-03T04:28:13;8.15;;;4.72;;
48685;SDS011;34485;51.536;3.816;2023-04-03T04:30:39;7.63;;;4.93;;
48685;SDS011;34485;51.536;3.816;2023-04-03T04:33:04;11.23;;;4.63;;
48685;SDS011;34485;51.536;3.816;2023-04-03T04:35:31;5.57;;;4.47;;
48685;SDS011;34485;51.536;3.816;2023-04-03T04:37:57;6.18;;;4.78;;
48685;SDS011;34485;51.536;3.816;2023-04-03T04:40:23;5.63;;;4.37;;
48685;SDS011;34485;51.536;3.816;2023-04-03T04:42:48;6.93;;;4.25;;
48685;SDS011;34485;51.536;3.816;2023-04-03T04:45:14;4.13;;;3.77;;
48685;SDS011;34485;51.536;3.816;2023-04-03T04:47:40;10.65;;;3.72;;
48685;SDS011;34485;51.536;3.816;2023-04-03T04:50:06;6.50;;;4.28;;
48685;SDS011;34485;51.536;3.816;2023-04-03T04:52:32;5.40;;;3.90;;
48685;SDS011;34485;51.536;3.816;2023-04-03T04:54:58;5.13;;;3.75;;
48685;SDS011;34485;51.536;3.816;2023-04-03T04:57:24;8.57;;;4.90;;
48685;SDS011;34485;51.536;3.816;2023-04-03T04:59:50;5.53;;;4.60;;
48685;SDS011;34485;51.536;3.816;2023-04-03T05:02:15;6.90;;;4.53;;
48685;SDS011;34485;51.536;3.816;2023-04-03T05:04:41;4.50;;;3.65;;
48685;SDS011;34485;51.536;3.816;2023-04-03T05:07:07;4.80;;;4.40;;
48685;SDS011;34485;51.536;3.816;2023-04-03T05:09:32;7.00;;;4.75;;
48685;SDS011;34485;51.536;3.816;2023-04-03T05:11:58;5.70;;;4.30;;
48685;SDS011;34485;51.536;3.816;2023-04-03T05:14:24;5.45;;;4.47;;
48685;SDS011;34485;51.536;3.816;2023-04-03T05:16:49;6.75;;;5.28;;
48685;SDS011;34485;51.536;3.816;2023-04-03T05:19:18;4.72;;;4.32;;
48685;SDS011;34485;51.536;3.816;2023-04-03T05:21:47;6.57;;;4.78;;
48685;SDS011;34485;51.536;3.816;2023-04-03T05:24:13;7.13;;;4.72;;
48685;SDS011;34485;51.536;3.816;2023-04-03T05:26:40;5.05;;;4.38;;
48685;SDS011;34485;51.536;3.816;2023-04-03T05:29:06;4.20;;;3.80;;
48685;SDS011;34485;51.536;3.816;2023-04-03T05:31:35;5.03;;;4.00;;
48685;SDS011;34485;51.536;3.816;2023-04-03T05:34:00;6.70;;;4.10;;
48685;SDS011;34485;51.536;3.816;2023-04-03T05:36:27;6.65;;;5.68;;
48685;SDS011;34485;51.536;3.816;2023-04-03T05:38:52;8.30;;;4.30;;
48685;SDS011;34485;51.536;3.816;2023-04-03T05:41:19;8.60;;;4.78;;
48685;SDS011;34485;51.536;3.816;2023-04-03T05:43:45;7.63;;;4.67;;
48685;SDS011;34485;51.536;3.816;2023-04-03T05:46:12;5.97;;;4.50;;
48685;SDS011;34485;51.536;3.816;2023-04-03T05:48:43;9.00;;;5.55;;
48685;SDS011;34485;51.536;3.816;2023-04-03T05:51:13;5.70;;;5.10;;
48685;SDS011;34485;51.536;3.816;2023-04-03T05:53:44;6.95;;;4.85;;
48685;SDS011;34485;51.536;3.816;2023-04-03T05:56:10;11.45;;;4.75;;
48685;SDS011;34485;51.536;3.816;2023-04-03T05:58:36;8.50;;;5.35;;
48685;SDS011;34485;51.536;3.816;2023-04-03T06:01:02;6.60;;;5.07;;
48685;SDS011;34485;51.536;3.816;2023-04-03T06:03:28;4.85;;;4.20;;
48685;SDS011;34485;51.536;3.816;2023-04-03T06:05:53;5.70;;;4.55;;
48685;SDS011;34485;51.536;3.816;2023-04-03T06:08:19;6.35;;;4.95;;
48685;SDS011;34485;51.536;3.816;2023-04-03T06:10:45;7.10;;;5.03;;
48685;SDS011;34485;51.536;3.816;2023-04-03T06:13:11;5.75;;;4.70;;
48685;SDS011;34485;51.536;3.816;2023-04-03T06:15:37;24.10;;;4.72;;
48685;SDS011;34485;51.536;3.816;2023-04-03T06:18:04;7.90;;;5.18;;
48685;SDS011;34485;51.536;3.816;2023-04-03T06:20:30;8.18;;;4.72;;
48685;SDS011;34485;51.536;3.816;2023-04-03T06:22:56;5.10;;;4.60;;
48685;SDS011;34485;51.536;3.816;2023-04-03T06:25:22;4.88;;;4.20;;
48685;SDS011;34485;51.536;3.816;2023-04-03T06:27:47;5.82;;;4.32;;
48685;SDS011;34485;51.536;3.816;2023-04-03T06:30:13;9.77;;;3.92;;
48685;SDS011;34485;51.536;3.816;2023-04-03T06:32:39;7.45;;;4.40;;
48685;SDS011;34485;51.536;3.816;2023-04-03T06:35:05;4.17;;;3.80;;
48685;SDS011;34485;51.536;3.816;2023-04-03T06:37:31;4.80;;;4.18;;
48685;SDS011;34485;51.536;3.816;2023-04-03T06:39:57;7.70;;;4.53;;
48685;SDS011;34485;51.536;3.816;2023-04-03T06:42:23;5.47;;;4.07;;
48685;SDS011;34485;51.536;3.816;2023-04-03T06:44:49;6.55;;;5.32;;
48685;SDS011;34485;51.536;3.816;2023-04-03T06:47:15;4.33;;;3.93;;
48685;SDS011;34485;51.536;3.816;2023-04-03T06:49:42;8.57;;;4.82;;
48685;SDS011;34485;51.536;3.816;2023-04-03T06:52:09;6.32;;;4.45;;
48685;SDS011;34485;51.536;3.816;2023-04-03T06:54:37;7.23;;;4.33;;
48685;SDS011;34485;51.536;3.816;2023-04-03T06:57:03;6.07;;;4.18;;
48685;SDS011;34485;51.536;3.816;2023-04-03T06:59:29;9.02;;;5.35;;
48685;SDS011;34485;51.536;3.816;2023-04-03T07:01:55;6.75;;;4.50;;
48685;SDS011;34485;51.536;3.816;2023-04-03T07:04:20;5.30;;;4.80;;
48685;SDS011;34485;51.536;3.816;2023-04-03T07:06:46;8.60;;;4.63;;
48685;SDS011;34485;51.536;3.816;2023-04-03T07:09:12;4.28;;;3.22;;
48685;SDS011;34485;51.536;3.816;2023-04-03T07:11:38;7.15;;;4.80;;
48685;SDS011;34485;51.536;3.816;2023-04-03T07:14:05;7.88;;;4.80;;
48685;SDS011;34485;51.536;3.816;2023-04-03T07:16:32;8.18;;;4.85;;
48685;SDS011;34485;51.536;3.816;2023-04-03T07:18:59;8.40;;;4.20;;
48685;SDS011;34485;51.536;3.816;2023-04-03T07:21:26;6.18;;;3.20;;
48685;SDS011;34485;51.536;3.816;2023-04-03T07:23:52;5.60;;;4.07;;
48685;SDS011;34485;51.536;3.816;2023-04-03T07:26:18;5.72;;;3.85;;
48685;SDS011;34485;51.536;3.816;2023-04-03T07:28:45;8.55;;;4.32;;
48685;SDS011;34485;51.536;3.816;2023-04-03T07:31:13;4.73;;;3.20;;
48685;SDS011;34485;51.536;3.816;2023-04-03T07:33:40;7.05;;;4.25;;
48685;SDS011;34485;51.536;3.816;2023-04-03T07:36:07;6.72;;;4.03;;
48685;SDS011;34485;51.536;3.816;2023-04-03T07:38:34;7.25;;;3.55;;
48685;SDS011;34485;51.536;3.816;2023-04-03T07:41:00;6.47;;;4.20;;
48685;SDS011;34485;51.536;3.816;2023-04-03T07:43:26;6.53;;;4.13;;
48685;SDS011;34485;51.536;3.816;2023-04-03T07:45:52;4.27;;;3.87;;
48685;SDS011;34485;51.536;3.816;2023-04-03T07:48:19;4.65;;;3.40;;
48685;SDS011;34485;51.536;3.816;2023-04-03T07:50:47;7.43;;;3.78;;
48685;SDS011;34485;51.536;3.816;2023-04-03T07:53:12;6.53;;;3.07;;
48685;SDS011;34485;51.536;3.816;2023-04-03T07:55:39;10.38;;;3.40;;
48685;SDS011;34485;51.536;3.816;2023-04-03T07:58:11;5.07;;;3.35;;
48685;SDS011;34485;51.536;3.816;2023-04-03T08:00:39;4.50;;;4.10;;
48685;SDS011;34485;51.536;3.816;2023-04-03T08:03:06;5.65;;;3.55;;
48685;SDS011;34485;51.536;3.816;2023-04-03T08:05:37;7.57;;;3.47;;
48685;SDS011;34485;51.536;3.816;2023-04-03T08:08:05;4.93;;;3.63;;
48685;SDS011;34485;51.536;3.816;2023-04-03T08:10:31;4.95;;;2.90;;
48685;SDS011;34485;51.536;3.816;2023-04-03T08:12:58;3.83;;;3.38;;
48685;SDS011;34485;51.536;3.816;2023-04-03T08:15:24;3.77;;;2.73;;
48685;SDS011;34485;51.536;3.816;2023-04-03T08:17:50;4.90;;;3.00;;
48685;SDS011;34485;51.536;3.816;2023-04-03T08:20:16;6.65;;;2.97;;
48685;SDS011;34485;51.536;3.816;2023-04-03T08:22:42;3.90;;;3.30;;
48685;SDS011;34485;51.536;3.816;2023-04-03T08:25:08;6.83;;;3.10;;
48685;SDS011;34485;51.536;3.816;2023-04-03T08:27:34;4.35;;;2.53;;
48685;SDS011;34485;51.536;3.816;2023-04-03T08:30:00;3.22;;;2.95;;
48685;SDS011;34485;51.536;3.816;2023-04-03T08:32:26;6.00;;;2.87;;
48685;SDS011;34485;51.536;3.816;2023-04-03T08:34:52;4.45;;;3.20;;
48685;SDS011;34485;51.536;3.816;2023-04-03T08:37:18;10.98;;;3.75;;
48685;SDS011;34485;51.536;3.816;2023-04-03T08:39:44;3.93;;;2.27;;
48685;SDS011;34485;51.536;3.816;2023-04-03T08:42:53;2.75;;;2.55;;
48685;SDS011;34485;51.536;3.816;2023-04-03T08:45:08;5.03;;;3.22;;
48685;SDS011;34485;51.536;3.816;2023-04-03T08:47:38;3.42;;;2.63;;
48685;SDS011;34485;51.536;3.816;2023-04-03T08:50:24;3.63;;;2.72;;
48685;SDS011;34485;51.536;3.816;2023-04-03T08:52:57;3.70;;;2.73;;
48685;SDS011;34485;51.536;3.816;2023-04-03T08:58:02;5.05;;;3.40;;
48685;SDS011;34485;51.536;3.816;2023-04-03T09:00:49;4.75;;;2.47;;
48685;SDS011;34485;51.536;3.816;2023-04-03T09:03:17;3.45;;;2.65;;
48685;SDS011;34485;51.536;3.816;2023-04-03T09:05:52;4.40;;;3.00;;
48685;SDS011;34485;51.536;3.816;2023-04-03T09:08:29;6.53;;;2.78;;
48685;SDS011;34485;51.536;3.816;2023-04-03T09:19:07;6.60;;;2.87;;
48685;SDS011;34485;51.536;3.816;2023-04-03T09:21:36;4.20;;;2.45;;
48685;SDS011;34485;51.536;3.816;2023-04-03T09:24:04;3.92;;;3.15;;
48685;SDS011;34485;51.536;3.816;2023-04-03T09:29:21;5.35;;;2.80;;
48685;SDS011;34485;51.536;3.816;2023-04-03T09:31:48;5.23;;;2.63;;
48685;SDS011;34485;51.536;3.816;2023-04-03T09:34:32;4.18;;;2.45;;
48685;SDS011;34485;51.536;3.816;2023-04-03T09:36:59;3.33;;;2.60;;
48685;SDS011;34485;51.536;3.816;2023-04-03T09:39:30;3.92;;;2.83;;
48685;SDS011;34485;51.536;3.816;2023-04-03T09:44:48;2.93;;;2.70;;
48685;SDS011;34485;51.536;3.816;2023-04-03T09:49:44;5.45;;;2.70;;
48685;SDS011;34485;51.536;3.816;2023-04-03T09:52:22;4.13;;;2.88;;
48685;SDS011;34485;51.536;3.816;2023-04-03T09:54:48;4.22;;;2.60;;
48685;SDS011;34485;51.536;3.816;2023-04-03T09:57:14;3.97;;;2.73;;
48685;SDS011;34485;51.536;3.816;2023-04-03T09:59:45;3.60;;;2.47;;
48685;SDS011;34485;51.536;3.816;2023-04-03T10:02:22;5.65;;;3.55;;
48685;SDS011;34485;51.536;3.816;2023-04-03T10:04:56;3.58;;;2.60;;
48685;SDS011;34485;51.536;3.816;2023-04-03T10:07:40;4.90;;;2.80;;
48685;SDS011;34485;51.536;3.816;2023-04-03T10:12:42;3.45;;;2.60;;
48685;SDS011;34485;51.536;3.816;2023-04-03T10:15:11;4.00;;;2.85;;
48685;SDS011;34485;51.536;3.816;2023-04-03T10:36:09;4.53;;;3.00;;
48685;SDS011;34485;51.536;3.816;2023-04-03T10:52:52;3.22;;;2.85;;
48685;SDS011;34485;51.536;3.816;2023-04-03T10:55:31;3.10;;;2.80;;
48685;SDS011;34485;51.536;3.816;2023-04-03T10:57:59;5.22;;;3.15;;
48685;SDS011;34485;51.536;3.816;2023-04-03T11:03:14;2.67;;;2.03;;
48685;SDS011;34485;51.536;3.816;2023-04-03T11:05:49;2.75;;;2.50;;
48685;SDS011;34485;51.536;3.816;2023-04-03T11:08:25;5.85;;;3.00;;
48685;SDS011;34485;51.536;3.816;2023-04-03T11:11:15;2.55;;;2.35;;
48685;SDS011;34485;51.536;3.816;2023-04-03T11:13:48;4.73;;;2.40;;
48685;SDS011;34485;51.536;3.816;2023-04-03T11:16:17;3.92;;;2.67;;
48685;SDS011;34485;51.536;3.816;2023-04-03T11:19:05;2.90;;;2.60;;
48685;SDS011;34485;51.536;3.816;2023-04-03T11:21:42;4.03;;;2.30;;
48685;SDS011;34485;51.536;3.816;2023-04-03T11:24:24;4.88;;;2.78;;
48685;SDS011;34485;51.536;3.816;2023-04-03T11:26:52;4.33;;;2.60;;
48685;SDS011;34485;51.536;3.816;2023-04-03T11:29:21;3.47;;;2.92;;
48685;SDS011;34485;51.536;3.816;2023-04-03T11:34:56;2.70;;;2.50;;
48685;SDS011;34485;51.536;3.816;2023-04-03T11:37:33;4.78;;;2.55;;
48685;SDS011;34485;51.536;3.816;2023-04-03T11:40:06;4.73;;;2.53;;
48685;SDS011;34485;51.536;3.816;2023-04-03T11:42:38;2.88;;;2.63;;
48685;SDS011;34485;51.536;3.816;2023-04-03T11:45:15;2.55;;;2.35;;
48685;SDS011;34485;51.536;3.816;2023-04-03T11:47:50;2.58;;;2.38;;
48685;SDS011;34485;51.536;3.816;2023-04-03T11:55:57;3.40;;;2.33;;
48685;SDS011;34485;51.536;3.816;2023-04-03T12:00:59;3.65;;;2.33;;
48685;SDS011;34485;51.536;3.816;2023-04-03T12:13:39;2.20;;;2.10;;
48685;SDS011;34485;51.536;3.816;2023-04-03T12:16:27;2.08;;;1.98;;
48685;SDS011;34485;51.536;3.816;2023-04-03T12:26:51;2.38;;;1.90;;
48685;SDS011;34485;51.536;3.816;2023-04-03T12:32:06;2.30;;;2.10;;
48685;SDS011;34485;51.536;3.816;2023-04-03T12:40:37;2.45;;;2.25;;
48685;SDS011;34485;51.536;3.816;2023-04-03T12:51:05;2.33;;;2.13;;
48685;SDS011;34485;51.536;3.816;2023-04-03T12:53:32;2.35;;;2.25;;
48685;SDS011;34485;51.536;3.816;2023-04-03T12:58:47;4.40;;;2.07;;
48685;SDS011;34485;51.536;3.816;2023-04-03T13:01:15;2.33;;;2.20;;
48685;SDS011;34485;51.536;3.816;2023-04-03T13:03:44;2.90;;;2.70;;
48685;SDS011;34485;51.536;3.816;2023-04-03T13:06:45;5.63;;;2.25;;
48685;SDS011;34485;51.536;3.816;2023-04-03T13:09:05;2.55;;;2.00;;
48685;SDS011;34485;51.536;3.816;2023-04-03T13:11:42;2.70;;;1.67;;
48685;SDS011;34485;51.536;3.816;2023-04-03T13:14:14;8.07;;;2.10;;
48685;SDS011;34485;51.536;3.816;2023-04-03T13:16:52;2.45;;;2.25;;
48685;SDS011;34485;51.536;3.816;2023-04-03T13:19:29;1.92;;;1.83;;
48685;SDS011;34485;51.536;3.816;2023-04-03T13:21:59;2.10;;;2.00;;
48685;SDS011;34485;51.536;3.816;2023-04-03T13:24:26;1.77;;;1.53;;
48685;SDS011;34485;51.536;3.816;2023-04-03T13:26:55;1.95;;;1.85;;
48685;SDS011;34485;51.536;3.816;2023-04-03T13:29:29;1.80;;;1.70;;
48685;SDS011;34485;51.536;3.816;2023-04-03T13:31:57;3.10;;;1.67;;
48685;SDS011;34485;51.536;3.816;2023-04-03T13:34:26;2.33;;;1.98;;
48685;SDS011;34485;51.536;3.816;2023-04-03T13:41:47;2.42;;;2.20;;
48685;SDS011;34485;51.536;3.816;2023-04-03T13:46:43;1.95;;;1.80;;
48685;SDS011;34485;51.536;3.816;2023-04-03T13:49:20;1.50;;;1.40;;
48685;SDS011;34485;51.536;3.816;2023-04-03T13:51:48;2.47;;;2.22;;
48685;SDS011;34485;51.536;3.816;2023-04-03T13:54:19;2.90;;;1.63;;
48685;SDS011;34485;51.536;3.816;2023-04-03T13:56:55;2.13;;;2.03;;
48685;SDS011;34485;51.536;3.816;2023-04-03T14:04:44;2.17;;;2.08;;
48685;SDS011;34485;51.536;3.816;2023-04-03T14:07:25;3.10;;;2.42;;
48685;SDS011;34485;51.536;3.816;2023-04-03T14:09:51;2.55;;;2.38;;
48685;SDS011;34485;51.536;3.816;2023-04-03T14:12:19;2.10;;;2.00;;
48685;SDS011;34485;51.536;3.816;2023-04-03T14:14:56;2.30;;;2.20;;
48685;SDS011;34485;51.536;3.816;2023-04-03T14:17:22;1.83;;;1.73;;
48685;SDS011;34485;51.536;3.816;2023-04-03T14:19:49;3.25;;;2.35;;
48685;SDS011;34485;51.536;3.816;2023-04-03T14:22:23;3.53;;;2.03;;
48685;SDS011;34485;51.536;3.816;2023-04-03T14:24:51;2.17;;;1.97;;
48685;SDS011;34485;51.536;3.816;2023-04-03T14:29:51;1.70;;;1.60;;
48685;SDS011;34485;51.536;3.816;2023-04-03T14:32:19;2.85;;;2.05;;
48685;SDS011;34485;51.536;3.816;2023-04-03T14:34:47;2.40;;;2.25;;
48685;SDS011;34485;51.536;3.816;2023-04-03T14:37:14;3.27;;;2.10;;
48685;SDS011;34485;51.536;3.816;2023-04-03T14:39:43;2.80;;;2.13;;
48685;SDS011;34485;51.536;3.816;2023-04-03T14:42:11;2.22;;;2.03;;
48685;SDS011;34485;51.536;3.816;2023-04-03T14:44:39;2.30;;;2.20;;
48685;SDS011;34485;51.536;3.816;2023-04-03T14:47:08;2.25;;;2.08;;
48685;SDS011;34485;51.536;3.816;2023-04-03T14:49:34;2.33;;;2.07;;
48685;SDS011;34485;51.536;3.816;2023-04-03T14:52:00;2.08;;;1.98;;
48685;SDS011;34485;51.536;3.816;2023-04-03T14:54:26;2.42;;;2.33;;
48685;SDS011;34485;51.536;3.816;2023-04-03T14:56:54;3.53;;;2.05;;
48685;SDS011;34485;51.536;3.816;2023-04-03T14:59:21;2.88;;;1.98;;
48685;SDS011;34485;51.536;3.816;2023-04-03T15:01:47;2.77;;;1.63;;
48685;SDS011;34485;51.536;3.816;2023-04-03T15:04:14;2.60;;;2.40;;
48685;SDS011;34485;51.536;3.816;2023-04-03T15:06:41;2.70;;;2.30;;
48685;SDS011;34485;51.536;3.816;2023-04-03T15:09:26;2.58;;;2.42;;
48685;SDS011;34485;51.536;3.816;2023-04-03T15:11:53;2.30;;;2.08;;
48685;SDS011;34485;51.536;3.816;2023-04-03T15:14:19;2.07;;;1.90;;
48685;SDS011;34485;51.536;3.816;2023-04-03T15:16:46;4.43;;;2.15;;
48685;SDS011;34485;51.536;3.816;2023-04-03T15:19:12;2.88;;;2.00;;
48685;SDS011;34485;51.536;3.816;2023-04-03T15:21:38;1.70;;;1.60;;
48685;SDS011;34485;51.536;3.816;2023-04-03T15:24:05;2.28;;;2.08;;
48685;SDS011;34485;51.536;3.816;2023-04-03T15:26:31;3.43;;;2.13;;
48685;SDS011;34485;51.536;3.816;2023-04-03T15:28:57;5.30;;;2.13;;
48685;SDS011;34485;51.536;3.816;2023-04-03T15:31:23;2.75;;;2.30;;
48685;SDS011;34485;51.536;3.816;2023-04-03T15:33:50;2.53;;;2.38;;
48685;SDS011;34485;51.536;3.816;2023-04-03T15:36:15;1.70;;;1.60;;
48685;SDS011;34485;51.536;3.816;2023-04-03T15:38:41;3.93;;;2.43;;
48685;SDS011;34485;51.536;3.816;2023-04-03T15:41:07;2.15;;;2.03;;
48685;SDS011;34485;51.536;3.816;2023-04-03T15:43:33;2.23;;;2.00;;
48685;SDS011;34485;51.536;3.816;2023-04-03T15:46:00;2.72;;;2.28;;
48685;SDS011;34485;51.536;3.816;2023-04-03T15:48:26;3.08;;;2.53;;
48685;SDS011;34485;51.536;3.816;2023-04-03T15:50:53;3.53;;;2.60;;
48685;SDS011;34485;51.536;3.816;2023-04-03T15:53:19;3.87;;;2.23;;
48685;SDS011;34485;51.536;3.816;2023-04-03T15:55:44;4.20;;;2.38;;
48685;SDS011;34485;51.536;3.816;2023-04-03T15:58:10;3.80;;;2.00;;
48685;SDS011;34485;51.536;3.816;2023-04-03T16:00:36;2.53;;;1.73;;
48685;SDS011;34485;51.536;3.816;2023-04-03T16:03:09;5.07;;;2.33;;
48685;SDS011;34485;51.536;3.816;2023-04-03T16:05:37;4.45;;;2.65;;
48685;SDS011;34485;51.536;3.816;2023-04-03T16:08:04;2.70;;;2.00;;
48685;SDS011;34485;51.536;3.816;2023-04-03T16:10:32;2.55;;;1.98;;
48685;SDS011;34485;51.536;3.816;2023-04-03T16:12:59;2.65;;;2.53;;
48685;SDS011;34485;51.536;3.816;2023-04-03T16:15:25;2.60;;;2.03;;
48685;SDS011;34485;51.536;3.816;2023-04-03T16:17:51;2.60;;;1.77;;
48685;SDS011;34485;51.536;3.816;2023-04-03T16:20:18;2.70;;;2.40;;
48685;SDS011;34485;51.536;3.816;2023-04-03T16:22:44;2.60;;;1.80;;
48685;SDS011;34485;51.536;3.816;2023-04-03T16:25:10;3.17;;;2.70;;
48685;SDS011;34485;51.536;3.816;2023-04-03T16:27:37;3.78;;;2.70;;
48685;SDS011;34485;51.536;3.816;2023-04-03T16:30:04;2.47;;;2.27;;
48685;SDS011;34485;51.536;3.816;2023-04-03T16:32:31;10.52;;;3.35;;
48685;SDS011;34485;51.536;3.816;2023-04-03T16:34:57;2.38;;;2.17;;
48685;SDS011;34485;51.536;3.816;2023-04-03T16:37:24;2.55;;;2.08;;
48685;SDS011;34485;51.536;3.816;2023-04-03T16:39:50;2.92;;;2.35;;
48685;SDS011;34485;51.536;3.816;2023-04-03T16:42:15;2.43;;;2.23;;
48685;SDS011;34485;51.536;3.816;2023-04-03T16:44:41;3.23;;;1.97;;
48685;SDS011;34485;51.536;3.816;2023-04-03T16:47:07;9.98;;;2.70;;
48685;SDS011;34485;51.536;3.816;2023-04-03T16:49:33;3.10;;;2.90;;
48685;SDS011;34485;51.536;3.816;2023-04-03T16:52:00;2.22;;;2.05;;
48685;SDS011;34485;51.536;3.816;2023-04-03T16:54:27;3.43;;;2.80;;
48685;SDS011;34485;51.536;3.816;2023-04-03T16:56:53;1.85;;;1.75;;
48685;SDS011;34485;51.536;3.816;2023-04-03T16:59:19;3.80;;;2.65;;
48685;SDS011;34485;51.536;3.816;2023-04-03T17:01:45;4.00;;;3.03;;